Time;durP1;ratioP1;P1;durP2;ratioP2;P2;SDS_P1;SDS_P2;PMS_P1;PMS_P2;Temp;Humidity;BMP_temperature;BMP_pressure;BME280_temperature;BME280_humidity;BME280_pressure;Samples;Min_cycle;Max_cycle;Signal;HPM_P1;HPM_P2
2022/05/11 00:00:23;;;;;;;8.05;1.90;;;;;;;;;;5052660;28;20156;-78
2022/05/11 00:02:49;;;;;;;6.60;1.30;;;;;;;;;;5054100;28;20127;-77
2022/05/11 00:05:16;;;;;;;4.82;1.08;;;;;;;;;;5053809;28;20080;-77
2022/05/11 00:07:42;;;;;;;7.03;1.20;;;;;;;;;;5053911;28;20083;-78
2022/05/11 00:10:12;;;;;;;5.50;1.27;;;;;;;;;;5043557;28;20076;-78
2022/05/11 00:12:39;;;;;;;5.68;1.13;;;;;;;;;;5047786;28;20127;-78
2022/05/11 00:15:06;;;;;;;6.60;1.60;;;;;;;;;;5051583;28;20063;-77
2022/05/11 00:17:33;;;;;;;8.60;1.63;;;;;;;;;;5053484;28;20107;-78
2022/05/11 00:20:00;;;;;;;5.72;1.10;;;;;;;;;;5052289;28;20079;-78
2022/05/11 00:22:26;;;;;;;8.90;1.88;;;;;;;;;;5053781;28;20045;-78
2022/05/11 00:24:53;;;;;;;5.35;1.27;;;;;;;;;;5068874;28;20083;-78
2022/05/11 00:27:19;;;;;;;3.40;1.20;;;;;;;;;;5053589;28;20618;-77
2022/05/11 00:29:46;;;;;;;5.03;1.88;;;;;;;;;;5052344;28;20053;-77
2022/05/11 00:32:12;;;;;;;6.97;1.55;;;;;;;;;;5052325;28;20129;-77
2022/05/11 00:34:38;;;;;;;8.82;1.67;;;;;;;;;;5053279;28;20083;-77
2022/05/11 00:37:05;;;;;;;7.90;1.77;;;;;;;;;;5053490;28;20037;-77
2022/05/11 00:39:33;;;;;;;9.55;2.03;;;;;;;;;;5053107;28;20077;-77
2022/05/11 00:42:03;;;;;;;4.78;1.52;;;;;;;;;;5053188;28;20093;-77
2022/05/11 00:44:30;;;;;;;7.13;2.15;;;;;;;;;;5051476;28;20472;-78
2022/05/11 00:46:57;;;;;;;8.35;2.40;;;;;;;;;;5051907;28;20086;-78
2022/05/11 00:49:48;;;;;;;5.13;1.40;;;;;;;;;;5052935;28;20064;-78
2022/05/11 00:52:18;;;;;;;6.15;1.60;;;;;;;;;;5051942;28;20052;-78
2022/05/11 00:54:47;;;;;;;8.35;1.80;;;;;;;;;;5053141;28;20091;-78
2022/05/11 00:57:17;;;;;;;7.35;1.40;;;;;;;;;;5052828;28;20543;-78
2022/05/11 00:59:45;;;;;;;10.45;1.80;;;;;;;;;;5053338;28;20053;-78
2022/05/11 01:02:12;;;;;;;7.13;2.53;;;;;;;;;;5051410;28;20048;-78
2022/05/11 01:04:41;;;;;;;5.88;1.70;;;;;;;;;;5052637;28;20051;-78
2022/05/11 01:07:09;;;;;;;6.47;1.88;;;;;;;;;;5051361;28;20489;-78
2022/05/11 01:09:36;;;;;;;7.63;2.22;;;;;;;;;;5052173;28;20041;-78
2022/05/11 01:12:05;;;;;;;12.43;2.45;;;;;;;;;;5052622;28;20084;-78
2022/05/11 01:14:34;;;;;;;11.00;1.90;;;;;;;;;;5052695;28;20075;-78
2022/05/11 01:17:01;;;;;;;6.38;1.92;;;;;;;;;;5052718;28;20049;-78
2022/05/11 01:19:32;;;;;;;7.65;1.63;;;;;;;;;;5052381;28;20080;-78
2022/05/11 01:22:19;;;;;;;6.63;2.05;;;;;;;;;;5051129;28;20554;-78
2022/05/11 01:24:47;;;;;;;7.55;2.42;;;;;;;;;;5050585;28;20049;-78
2022/05/11 01:27:21;;;;;;;7.20;2.10;;;;;;;;;;5052430;28;20103;-78
2022/05/11 01:29:47;;;;;;;5.28;1.70;;;;;;;;;;5052103;28;20095;-78
2022/05/11 01:32:13;;;;;;;8.95;1.83;;;;;;;;;;5052248;28;20079;-78
2022/05/11 01:34:40;;;;;;;8.30;2.72;;;;;;;;;;5051073;28;20103;-78
2022/05/11 01:37:06;;;;;;;4.72;1.73;;;;;;;;;;5052049;28;20447;-78
2022/05/11 01:39:33;;;;;;;7.50;2.63;;;;;;;;;;5051340;28;20087;-78
2022/05/11 01:41:59;;;;;;;11.73;2.42;;;;;;;;;;5050983;28;20049;-78
2022/05/11 01:44:25;;;;;;;7.53;1.85;;;;;;;;;;5051831;28;20136;-78
2022/05/11 01:46:53;;;;;;;8.43;2.28;;;;;;;;;;5051191;28;20080;-78
2022/05/11 01:49:21;;;;;;;10.10;2.05;;;;;;;;;;5051293;28;20129;-78
2022/05/11 01:51:47;;;;;;;8.23;2.35;;;;;;;;;;5051397;28;20092;-78
2022/05/11 01:54:14;;;;;;;8.63;1.98;;;;;;;;;;5050943;28;20560;-78
2022/05/11 01:56:40;;;;;;;7.05;2.25;;;;;;;;;;5050960;28;20523;-78
2022/05/11 01:59:07;;;;;;;7.85;2.22;;;;;;;;;;5051207;28;20053;-78
2022/05/11 02:01:34;;;;;;;7.25;2.10;;;;;;;;;;5051231;28;20087;-78
2022/05/11 02:04:01;;;;;;;4.65;1.73;;;;;;;;;;5051263;28;20080;-78
2022/05/11 02:09:15;;;;;;;6.30;2.10;;;;;;;;;;5051062;28;20091;-78
2022/05/11 02:11:42;;;;;;;5.88;1.90;;;;;;;;;;5050793;28;20524;-78
2022/05/11 02:14:09;;;;;;;5.45;1.38;;;;;;;;;;5051006;28;20472;-78
2022/05/11 02:16:35;;;;;;;7.30;1.87;;;;;;;;;;5050909;28;20110;-78
2022/05/11 02:19:01;;;;;;;9.10;2.30;;;;;;;;;;5051028;28;20057;-78
2022/05/11 02:21:28;;;;;;;9.70;2.78;;;;;;;;;;5048057;28;20497;-78
2022/05/11 02:23:54;;;;;;;10.20;2.00;;;;;;;;;;5050987;28;20088;-78
2022/05/11 02:26:21;;;;;;;7.80;2.10;;;;;;;;;;5050519;28;20137;-78
2022/05/11 02:28:48;;;;;;;10.55;2.30;;;;;;;;;;5065872;28;20087;-79
2022/05/11 02:31:15;;;;;;;8.23;2.38;;;;;;;;;;5050556;28;20045;-78
2022/05/11 02:33:41;;;;;;;8.73;2.35;;;;;;;;;;5050435;28;20048;-79
2022/05/11 02:36:08;;;;;;;10.27;2.72;;;;;;;;;;5049396;28;20077;-78
2022/05/11 02:38:34;;;;;;;7.72;2.30;;;;;;;;;;5050518;28;20065;-78
2022/05/11 02:41:01;;;;;;;6.30;1.80;;;;;;;;;;5050619;28;20077;-78
2022/05/11 02:43:28;;;;;;;7.83;1.93;;;;;;;;;;5050494;28;20474;-78
2022/05/11 02:45:54;;;;;;;11.87;2.33;;;;;;;;;;5006730;28;1268152;-78
2022/05/11 02:48:22;;;;;;;9.18;1.70;;;;;;;;;;5051184;28;20048;-78
2022/05/11 02:50:50;;;;;;;7.32;2.35;;;;;;;;;;5051209;28;20144;-78
2022/05/11 02:53:17;;;;;;;9.75;2.00;;;;;;;;;;5050958;28;20049;-79
2022/05/11 02:55:45;;;;;;;6.43;1.67;;;;;;;;;;5051082;28;20072;-79
2022/05/11 02:58:12;;;;;;;6.80;2.10;;;;;;;;;;5051103;28;20049;-79
2022/05/11 03:00:40;;;;;;;7.78;2.17;;;;;;;;;;5050205;28;20056;-79
2022/05/11 03:03:06;;;;;;;9.35;2.15;;;;;;;;;;5051060;28;20062;-78
2022/05/11 03:05:34;;;;;;;6.82;1.88;;;;;;;;;;5066371;28;20147;-79
2022/05/11 03:08:00;;;;;;;11.07;2.50;;;;;;;;;;5051337;28;20063;-79
2022/05/11 03:10:27;;;;;;;6.03;2.25;;;;;;;;;;5050904;28;20448;-79
2022/05/11 03:12:53;;;;;;;6.05;1.90;;;;;;;;;;5051392;28;20076;-79
2022/05/11 03:15:21;;;;;;;5.60;2.08;;;;;;;;;;5049764;28;20045;-79
2022/05/11 03:17:47;;;;;;;7.70;2.55;;;;;;;;;;5051195;28;20052;-79
2022/05/11 03:20:14;;;;;;;5.72;1.90;;;;;;;;;;5051157;28;20079;-79
2022/05/11 03:22:42;;;;;;;5.45;2.10;;;;;;;;;;5051318;28;20154;-78
2022/05/11 03:25:09;;;;;;;8.32;2.58;;;;;;;;;;5051007;28;20088;-77
2022/05/11 03:27:37;;;;;;;7.90;1.77;;;;;;;;;;5050990;28;20044;-78
2022/05/11 03:30:04;;;;;;;8.98;1.77;;;;;;;;;;5050750;28;20475;-78
2022/05/11 03:35:16;;;;;;;8.20;1.98;;;;;;;;;;5054845;28;20084;-78
2022/05/11 03:37:42;;;;;;;6.70;2.30;;;;;;;;;;5053225;28;20077;-78
2022/05/11 03:40:09;;;;;;;7.40;2.25;;;;;;;;;;5053179;28;20060;-78
2022/05/11 03:42:36;;;;;;;6.47;1.97;;;;;;;;;;5054214;28;20408;-77
2022/05/11 03:45:14;;;;;;;8.15;2.08;;;;;;;;;;5054008;28;20299;-77
2022/05/11 03:47:40;;;;;;;9.35;1.98;;;;;;;;;;5052925;28;20083;-77
2022/05/11 03:50:07;;;;;;;8.68;2.42;;;;;;;;;;5054017;28;20072;-79
2022/05/11 03:52:34;;;;;;;7.70;2.17;;;;;;;;;;5054152;28;20087;-79
2022/05/11 03:55:01;;;;;;;8.18;2.60;;;;;;;;;;5053959;28;20048;-79
2022/05/11 03:57:27;;;;;;;10.35;1.98;;;;;;;;;;5053916;28;20081;-77
2022/05/11 03:59:53;;;;;;;8.18;1.70;;;;;;;;;;5053821;28;20077;-77
2022/05/11 04:02:20;;;;;;;7.78;2.08;;;;;;;;;;5053902;28;20080;-78
2022/05/11 04:04:46;;;;;;;6.00;2.30;;;;;;;;;;5052879;28;20045;-78
2022/05/11 04:07:13;;;;;;;10.43;2.50;;;;;;;;;;5052853;28;20079;-80
2022/05/11 04:09:39;;;;;;;6.78;1.95;;;;;;;;;;5053742;28;20572;-80
2022/05/11 04:12:06;;;;;;;9.40;2.20;;;;;;;;;;5053923;28;20049;-80
2022/05/11 04:14:33;;;;;;;8.40;1.95;;;;;;;;;;5053884;28;20083;-80
2022/05/11 04:16:59;;;;;;;8.88;2.03;;;;;;;;;;5053869;28;20124;-80
2022/05/11 04:19:26;;;;;;;5.82;2.10;;;;;;;;;;5053595;28;20057;-80
2022/05/11 04:21:53;;;;;;;6.53;2.33;;;;;;;;;;5053465;28;20485;-80
2022/05/11 04:24:19;;;;;;;7.15;2.47;;;;;;;;;;5052236;28;20492;-80
2022/05/11 04:26:46;;;;;;;5.68;1.92;;;;;;;;;;5053688;28;20145;-79
2022/05/11 04:29:12;;;;;;;5.78;2.08;;;;;;;;;;5053674;28;20081;-79
2022/05/11 04:31:39;;;;;;;7.18;2.10;;;;;;;;;;5053486;28;20084;-79
2022/05/11 04:34:05;;;;;;;10.45;2.88;;;;;;;;;;5051991;28;20481;-78
2022/05/11 04:36:32;;;;;;;6.05;1.80;;;;;;;;;;5053553;28;20077;-78
2022/05/11 04:38:59;;;;;;;9.77;2.70;;;;;;;;;;5052139;28;20135;-80
2022/05/11 04:41:30;;;;;;;10.68;2.20;;;;;;;;;;5052258;28;20136;-80
2022/05/11 04:43:56;;;;;;;7.97;2.08;;;;;;;;;;5052222;28;20521;-79
2022/05/11 04:46:23;;;;;;;5.00;1.95;;;;;;;;;;5052714;28;20088;-79
2022/05/11 04:48:49;;;;;;;7.75;2.20;;;;;;;;;;5052929;28;20550;-79
2022/05/11 04:51:15;;;;;;;5.97;2.03;;;;;;;;;;5068326;28;20079;-79
2022/05/11 04:53:42;;;;;;;9.52;2.60;;;;;;;;;;5052872;28;20174;-79
2022/05/11 04:56:08;;;;;;;10.25;2.40;;;;;;;;;;5052846;28;20080;-79
2022/05/11 04:58:35;;;;;;;9.77;2.40;;;;;;;;;;5053023;28;20053;-79
2022/05/11 05:01:01;;;;;;;11.32;2.25;;;;;;;;;;5052804;28;20472;-78
2022/05/11 05:03:28;;;;;;;5.40;1.90;;;;;;;;;;5052801;28;20089;-79
2022/05/11 05:05:54;;;;;;;12.38;2.92;;;;;;;;;;5052921;28;20390;-78
2022/05/11 05:08:21;;;;;;;7.70;2.42;;;;;;;;;;5052489;28;20492;-78
2022/05/11 05:10:52;;;;;;;8.45;2.33;;;;;;;;;;5052818;28;20127;-77
2022/05/11 05:13:18;;;;;;;8.00;1.90;;;;;;;;;;5052801;28;20148;-77
2022/05/11 05:15:45;;;;;;;8.73;2.22;;;;;;;;;;5052537;28;20588;-77
2022/05/11 05:18:11;;;;;;;7.05;2.53;;;;;;;;;;5052536;28;20084;-76
2022/05/11 05:20:38;;;;;;;11.35;2.42;;;;;;;;;;5052386;28;20476;-77
2022/05/11 05:23:05;;;;;;;7.57;2.63;;;;;;;;;;5052440;28;20175;-76
2022/05/11 05:25:31;;;;;;;6.03;2.40;;;;;;;;;;5051048;28;20084;-76
2022/05/11 05:31:04;;;;;;;10.30;2.70;;;;;;;;;;5052355;28;20505;-77
2022/05/11 05:33:30;;;;;;;14.05;3.45;;;;;;;;;;5052526;28;20055;-77
2022/05/11 05:35:57;;;;;;;7.43;2.63;;;;;;;;;;5052334;28;20076;-77
2022/05/11 05:38:29;;;;;;;11.15;2.92;;;;;;;;;;5046079;28;20053;-77
2022/05/11 05:40:55;;;;;;;9.23;2.55;;;;;;;;;;5031806;28;20080;-78
2022/05/11 05:43:22;;;;;;;15.63;3.60;;;;;;;;;;5032034;28;20148;-77
2022/05/11 05:45:50;;;;;;;10.77;2.80;;;;;;;;;;5039931;28;20088;-78
2022/05/11 05:48:16;;;;;;;;;;;;;;;;;;5051887;28;20072;-77
2022/05/11 05:50:43;;;;;;;11.82;3.05;;;;;;;;;;5040921;28;19957;-78
2022/05/11 05:53:09;;;;;;;12.27;3.55;;;;;;;;;;5035694;28;20083;-77
2022/05/11 05:55:36;;;;;;;13.65;3.60;;;;;;;;;;5051441;28;20079;-78
2022/05/11 05:58:03;;;;;;;10.07;2.40;;;;;;;;;;5051695;28;20045;-78
2022/05/11 06:00:30;;;;;;;8.50;3.15;;;;;;;;;;5051950;28;20052;-80
2022/05/11 06:02:56;;;;;;;9.00;2.60;;;;;;;;;;5051115;28;20084;-77
2022/05/11 06:05:22;;;;;;;7.38;2.95;;;;;;;;;;5051467;28;20083;-75
2022/05/11 06:07:49;;;;;;;10.52;2.60;;;;;;;;;;5051668;28;20081;-78
2022/05/11 06:10:15;;;;;;;10.73;2.22;;;;;;;;;;5051449;28;20080;-79
2022/05/11 06:12:42;;;;;;;11.65;2.95;;;;;;;;;;5051413;28;20055;-77
2022/05/11 06:15:08;;;;;;;14.52;3.15;;;;;;;;;;5050171;28;20083;-78
2022/05/11 06:17:35;;;;;;;13.23;2.97;;;;;;;;;;5050164;28;20525;-78
2022/05/11 06:20:02;;;;;;;10.93;2.40;;;;;;;;;;5050037;28;20139;-79
2022/05/11 06:22:29;;;;;;;10.13;3.13;;;;;;;;;;5051730;28;20048;-78
2022/05/11 06:24:56;;;;;;;15.60;2.97;;;;;;;;;;5050587;28;20528;-78
2022/05/11 06:27:25;;;;;;;11.35;2.63;;;;;;;;;;5050941;28;20080;-75
2022/05/11 06:29:56;;;;;;;10.63;2.70;;;;;;;;;;5051156;28;20098;-76
2022/05/11 06:32:22;;;;;;;12.65;2.75;;;;;;;;;;5051277;28;20079;-74
2022/05/11 06:34:51;;;;;;;17.47;4.50;;;;;;;;;;5051405;28;20056;-75
2022/05/11 06:37:17;;;;;;;9.30;3.00;;;;;;;;;;5050236;28;20047;-75
2022/05/11 06:39:44;;;;;;;11.77;3.53;;;;;;;;;;5044985;28;20080;-74
2022/05/11 06:42:12;;;;;;;12.02;3.63;;;;;;;;;;5049347;28;20138;-74
2022/05/11 06:44:39;;;;;;;11.98;3.50;;;;;;;;;;5049615;28;20075;-73
2022/05/11 06:47:06;;;;;;;14.50;4.55;;;;;;;;;;5051151;28;20049;-75
2022/05/11 06:49:33;;;;;;;12.30;4.00;;;;;;;;;;5051491;28;20077;-73
2022/05/11 06:51:59;;;;;;;10.30;3.57;;;;;;;;;;5049636;28;20076;-74
2022/05/11 06:59:59;;;;;;;12.70;3.65;;;;;;;;;;5051471;28;20063;-74
2022/05/11 07:02:26;;;;;;;10.32;4.07;;;;;;;;;;5049820;28;20493;-75
2022/05/11 07:04:52;;;;;;;13.18;4.05;;;;;;;;;;5051393;28;20052;-75
2022/05/11 07:07:19;;;;;;;16.63;4.35;;;;;;;;;;5066560;28;20166;-76
2022/05/11 07:09:45;;;;;;;13.63;4.13;;;;;;;;;;5054900;28;20110;-75
2022/05/11 07:12:18;;;;;;;15.15;4.88;;;;;;;;;;5054732;28;20132;-76
2022/05/11 07:14:45;;;;;;;13.07;3.72;;;;;;;;;;5055200;28;20052;-76
2022/05/11 07:17:11;;;;;;;16.13;4.27;;;;;;;;;;5054732;28;20081;-76
2022/05/11 07:19:42;;;;;;;13.73;4.35;;;;;;;;;;5054988;28;20053;-76
2022/05/11 07:22:09;;;;;;;14.05;4.43;;;;;;;;;;5053667;28;20081;-76
2022/05/11 07:24:35;;;;;;;13.23;4.50;;;;;;;;;;5054962;28;20136;-76
2022/05/11 07:27:02;;;;;;;15.05;3.85;;;;;;;;;;5054654;28;20094;-76
2022/05/11 07:29:28;;;;;;;9.40;3.45;;;;;;;;;;5053474;28;20140;-76
2022/05/11 07:31:55;;;;;;;16.33;4.30;;;;;;;;;;5054446;28;20088;-76
2022/05/11 07:34:21;;;;;;;13.15;4.45;;;;;;;;;;5054301;28;20095;-77
2022/05/11 07:36:54;;;;;;;14.77;4.35;;;;;;;;;;5054676;28;20080;-77
2022/05/11 07:39:23;;;;;;;13.82;5.35;;;;;;;;;;5054638;28;20110;-78
2022/05/11 07:41:50;;;;;;;15.80;5.53;;;;;;;;;;5054169;28;20063;-77
2022/05/11 07:44:17;;;;;;;9.77;4.45;;;;;;;;;;5054024;28;20496;-78
2022/05/11 07:46:43;;;;;;;11.95;4.93;;;;;;;;;;5069677;28;20128;-77
2022/05/11 07:49:10;;;;;;;11.20;4.72;;;;;;;;;;5054334;28;20071;-78
2022/05/11 07:51:37;;;;;;;10.23;4.27;;;;;;;;;;5052859;28;20507;-79
2022/05/11 07:54:04;;;;;;;13.77;4.47;;;;;;;;;;5054057;28;20421;-79
2022/05/11 08:02:01;;;;;;;12.32;3.55;;;;;;;;;;5054314;28;20098;-79
2022/05/11 08:04:28;;;;;;;12.43;3.17;;;;;;;;;;5054069;28;20055;-78
2022/05/11 08:06:54;;;;;;;9.55;3.40;;;;;;;;;;5054089;28;20083;-78
2022/05/11 08:09:21;;;;;;;12.48;3.20;;;;;;;;;;5052393;28;20053;-79
2022/05/11 08:11:47;;;;;;;8.27;2.67;;;;;;;;;;5053945;28;20073;-79
2022/05/11 08:14:14;;;;;;;8.50;2.85;;;;;;;;;;5053676;28;20049;-78
2022/05/11 08:16:41;;;;;;;7.10;3.03;;;;;;;;;;5053666;28;20056;-79
2022/05/11 08:19:07;;;;;;;10.73;4.40;;;;;;;;;;5053505;28;20083;-78
2022/05/11 08:21:34;;;;;;;10.45;3.70;;;;;;;;;;5053652;28;20548;-79
2022/05/11 08:24:01;;;;;;;13.50;3.53;;;;;;;;;;5053748;28;20107;-78
2022/05/11 08:26:27;;;;;;;12.52;3.78;;;;;;;;;;5053712;28;20076;-80
2022/05/11 08:28:54;;;;;;;13.80;3.83;;;;;;;;;;5053698;28;20447;-79
2022/05/11 08:34:06;;;;;;;15.05;4.40;;;;;;;;;;5053335;28;20501;-80
2022/05/11 08:36:36;;;;;;;12.88;4.22;;;;;;;;;;5052093;28;20114;-80
2022/05/11 08:39:04;;;;;;;12.45;4.07;;;;;;;;;;5053484;28;20448;-80
2022/05/11 08:41:31;;;;;;;;;;;;;;;;;;5053912;28;20135;-80
2022/05/11 08:44:02;;;;;;;13.05;3.88;;;;;;;;;;5052152;28;19924;-81
2022/05/11 08:46:35;;;;;;;15.90;4.38;;;;;;;;;;5051719;28;20045;-81
2022/05/11 08:49:07;;;;;;;9.70;3.97;;;;;;;;;;5053016;28;20570;-83
2022/05/11 08:51:37;;;;;;;11.48;4.30;;;;;;;;;;5052905;28;20564;-82
2022/05/11 08:54:15;;;;;;;11.00;4.53;;;;;;;;;;5052952;28;20076;-84
2022/05/11 08:56:43;;;;;;;12.57;5.13;;;;;;;;;;5052809;28;20079;-85
2022/05/11 08:59:16;;;;;;;12.32;4.65;;;;;;;;;;5051948;28;20100;-85
2022/05/11 09:01:45;;;;;;;13.43;4.85;;;;;;;;;;5051921;28;20049;-88
2022/05/11 09:04:14;;;;;;;18.45;4.80;;;;;;;;;;5051569;28;20414;-86
2022/05/11 09:06:44;;;;;;;14.02;5.57;;;;;;;;;;5051421;28;20052;-89
2022/05/11 09:09:10;;;;;;;12.77;4.90;;;;;;;;;;5051628;28;20053;-91
2022/05/11 09:11:41;;;;;;;18.00;5.47;;;;;;;;;;5052599;28;20080;-87
2022/05/11 09:14:08;;;;;;;14.82;5.18;;;;;;;;;;5052836;28;20040;-87
2022/05/11 09:16:41;;;;;;;11.40;5.23;;;;;;;;;;5052521;28;20468;-87
2022/05/11 09:19:16;;;;;;;11.77;5.28;;;;;;;;;;5052949;28;20144;-91
2022/05/11 09:21:48;;;;;;;14.63;5.68;;;;;;;;;;5052598;28;20451;-89
2022/05/11 09:24:15;;;;;;;14.48;5.07;;;;;;;;;;5052684;28;20072;-90
2022/05/11 09:26:44;;;;;;;12.60;5.15;;;;;;;;;;5051464;28;20056;-90
2022/05/11 09:29:16;;;;;;;12.00;4.63;;;;;;;;;;5052494;28;20114;-89
2022/05/11 09:31:45;;;;;;;12.50;4.47;;;;;;;;;;5052108;28;20047;-87
2022/05/11 09:34:14;;;;;;;15.00;5.25;;;;;;;;;;5052223;28;20053;-84
2022/05/11 09:36:56;;;;;;;9.65;4.15;;;;;;;;;;5052077;28;20074;-82
2022/05/11 09:39:23;;;;;;;11.05;4.85;;;;;;;;;;5050902;28;20094;-81
2022/05/11 09:41:51;;;;;;;14.32;5.78;;;;;;;;;;5052388;28;20088;-79
2022/05/11 09:44:28;;;;;;;13.10;5.20;;;;;;;;;;5051716;28;20186;-84
2022/05/11 09:46:55;;;;;;;19.55;4.90;;;;;;;;;;5051982;28;20052;-80
2022/05/11 09:49:21;;;;;;;10.93;4.97;;;;;;;;;;5051790;28;20071;-81
2022/05/11 09:51:51;;;;;;;11.73;4.53;;;;;;;;;;5052184;28;20084;-80
2022/05/11 09:54:29;;;;;;;10.65;4.60;;;;;;;;;;5050569;28;20129;-81
2022/05/11 09:57:20;;;;;;;9.30;4.28;;;;;;;;;;5051960;28;20080;-81
2022/05/11 09:59:49;;;;;;;11.60;4.13;;;;;;;;;;5050431;28;20053;-79
2022/05/11 10:02:30;;;;;;;12.05;5.25;;;;;;;;;;5050742;28;20088;-81
2022/05/11 10:04:59;;;;;;;10.50;4.28;;;;;;;;;;5050759;28;20089;-82
2022/05/11 10:07:27;;;;;;;10.35;4.03;;;;;;;;;;5050752;28;20045;-82
2022/05/11 10:09:57;;;;;;;12.60;4.18;;;;;;;;;;5051786;28;20091;-85
2022/05/11 10:12:26;;;;;;;8.60;4.10;;;;;;;;;;5050361;28;20509;-82
2022/05/11 10:23:26;;;;;;;10.55;3.35;;;;;;;;;;5051759;28;20095;-86
2022/05/11 10:25:55;;;;;;;7.03;3.10;;;;;;;;;;5051510;28;20088;-84
2022/05/11 10:28:27;;;;;;;6.80;3.03;;;;;;;;;;5051895;28;20445;-79
2022/05/11 10:31:09;;;;;;;6.38;2.85;;;;;;;;;;5051399;28;20079;-83
2022/05/11 10:33:48;;;;;;;6.97;2.75;;;;;;;;;;5051509;28;20106;-79
2022/05/11 10:36:20;;;;;;;7.05;2.35;;;;;;;;;;5051455;28;20127;-80
2022/05/11 10:39:05;;;;;;;7.07;3.13;;;;;;;;;;5050439;28;20546;-80
2022/05/11 10:41:35;;;;;;;6.10;2.50;;;;;;;;;;5051290;28;20088;-79
2022/05/11 10:44:05;;;;;;;8.18;3.20;;;;;;;;;;5054839;28;20056;-82
2022/05/11 10:46:44;;;;;;;7.35;3.28;;;;;;;;;;5055227;28;20091;-79
2022/05/11 10:49:10;;;;;;;7.30;3.08;;;;;;;;;;5055495;28;20052;-79
2022/05/11 10:51:46;;;;;;;9.60;3.30;;;;;;;;;;5054226;28;20091;-79
2022/05/11 10:54:33;;;;;;;10.38;3.63;;;;;;;;;;5055197;28;20055;-77
2022/05/11 10:57:08;;;;;;;9.18;3.55;;;;;;;;;;5055171;28;20091;-76
2022/05/11 10:59:51;;;;;;;7.30;2.88;;;;;;;;;;5055424;28;20469;-77
2022/05/11 11:02:36;;;;;;;7.40;2.88;;;;;;;;;;5055376;28;20091;-77
2022/05/11 11:05:02;;;;;;;7.68;3.17;;;;;;;;;;5055216;28;20385;-77
2022/05/11 11:07:35;;;;;;;4.72;2.83;;;;;;;;;;5055301;28;20141;-76
2022/05/11 11:10:17;;;;;;;7.07;3.30;;;;;;;;;;5070150;28;20512;-76
2022/05/11 11:12:44;;;;;;;7.30;2.97;;;;;;;;;;5055399;28;20045;-76
2022/05/11 11:15:12;;;;;;;4.32;2.85;;;;;;;;;;5055108;28;20119;-75
2022/05/11 11:17:40;;;;;;;7.15;3.58;;;;;;;;;;5053864;28;20048;-76
2022/05/11 11:20:06;;;;;;;;;;;;;;;;;;5055462;28;20048;-76
2022/05/11 11:22:54;;;;;;;6.22;3.25;;;;;;;;;;5055049;28;19920;-75
2022/05/11 11:25:21;;;;;;;12.05;3.20;;;;;;;;;;5053314;28;20088;-77
2022/05/11 11:28:08;;;;;;;5.97;3.08;;;;;;;;;;5053457;28;20045;-77
2022/05/11 11:30:35;;;;;;;6.47;3.10;;;;;;;;;;5054594;28;20067;-77
2022/05/11 11:33:11;;;;;;;5.38;2.90;;;;;;;;;;5054764;28;20081;-79
2022/05/11 11:35:42;;;;;;;7.50;3.05;;;;;;;;;;5054335;28;20077;-80
2022/05/11 11:38:22;;;;;;;3.35;1.85;;;;;;;;;;5054661;28;20080;-80
2022/05/11 11:41:08;;;;;;;3.70;2.58;;;;;;;;;;5053402;28;20080;-82
2022/05/11 11:43:44;;;;;;;5.00;2.08;;;;;;;;;;5054627;28;20053;-82
2022/05/11 11:46:27;;;;;;;4.28;1.67;;;;;;;;;;5053991;28;20064;-81
2022/05/11 11:49:06;;;;;;;2.90;1.58;;;;;;;;;;5054444;28;20053;-82
2022/05/11 11:51:56;;;;;;;2.67;2.17;;;;;;;;;;5053125;28;20049;-90
2022/05/11 11:54:26;;;;;;;4.60;2.45;;;;;;;;;;5052648;28;20053;-89
2022/05/11 11:56:54;;;;;;;5.53;3.80;;;;;;;;;;5054271;28;20073;-82
2022/05/11 11:59:28;;;;;;;4.18;3.00;;;;;;;;;;5054300;28;20394;-82
2022/05/11 12:02:02;;;;;;;3.20;2.60;;;;;;;;;;5052823;28;20048;-81
2022/05/11 12:04:38;;;;;;;1.38;1.27;;;;;;;;;;5053946;28;20092;-79
2022/05/11 12:15:33;;;;;;;0.90;0.90;;;;;;;;;;5053707;28;20554;-76
2022/05/11 12:18:01;;;;;;;1.90;1.00;;;;;;;;;;5053717;28;20487;-76
2022/05/11 12:20:40;;;;;;;1.48;0.63;;;;;;;;;;5053577;28;20095;-76
2022/05/11 12:23:17;;;;;;;1.45;0.60;;;;;;;;;;5053741;28;20167;-75
2022/05/11 12:25:50;;;;;;;1.40;0.95;;;;;;;;;;5053446;28;20492;-75
2022/05/11 12:28:22;;;;;;;1.88;0.70;;;;;;;;;;5053548;28;20592;-76
2022/05/11 12:30:49;;;;;;;0.63;0.63;;;;;;;;;;5053587;28;20077;-76
2022/05/11 12:33:20;;;;;;;0.90;0.70;;;;;;;;;;5052473;28;20116;-75
2022/05/11 12:35:49;;;;;;;1.02;0.50;;;;;;;;;;5053656;28;20076;-75
2022/05/11 12:38:29;;;;;;;1.77;0.30;;;;;;;;;;5053543;28;20049;-75
2022/05/11 12:40:56;;;;;;;1.63;1.00;;;;;;;;;;5053530;28;20080;-74
2022/05/11 12:43:25;;;;;;;1.20;0.80;;;;;;;;;;5053465;28;20052;-74
2022/05/11 12:45:53;;;;;;;1.45;0.40;;;;;;;;;;5053061;28;20107;-74
2022/05/11 12:48:19;;;;;;;;;;;;;;;;;;5053500;28;20527;-74
2022/05/11 12:51:04;;;;;;;1.83;0.50;;;;;;;;;;5052973;28;19924;-74
2022/05/11 12:53:32;;;;;;;0.85;0.30;;;;;;;;;;5052959;28;20052;-74
2022/05/11 12:56:15;;;;;;;0.98;0.80;;;;;;;;;;5053268;28;20124;-74
2022/05/11 12:59:00;;;;;;;3.28;0.93;;;;;;;;;;5053406;28;20045;-74
2022/05/11 13:01:29;;;;;;;1.33;0.40;;;;;;;;;;5053173;28;20053;-73
2022/05/11 13:04:00;;;;;;;1.42;0.60;;;;;;;;;;5053071;28;20049;-74
2022/05/11 13:06:29;;;;;;;1.95;0.73;;;;;;;;;;5052093;28;20107;-74
2022/05/11 13:08:58;;;;;;;2.95;0.70;;;;;;;;;;5053029;28;20158;-74
2022/05/11 13:11:26;;;;;;;3.13;0.70;;;;;;;;;;5052836;28;20135;-74
2022/05/11 13:13:55;;;;;;;2.65;0.75;;;;;;;;;;5052607;28;20433;-74
2022/05/11 13:16:23;;;;;;;2.10;0.40;;;;;;;;;;5052563;28;20559;-71
2022/05/11 13:18:50;;;;;;;2.30;0.50;;;;;;;;;;5052762;28;20087;-71
2022/05/11 13:21:31;;;;;;;2.38;0.47;;;;;;;;;;5052619;28;20084;-71
2022/05/11 13:23:58;;;;;;;1.20;0.60;;;;;;;;;;5052694;28;20091;-72
2022/05/11 13:26:35;;;;;;;3.25;0.80;;;;;;;;;;5052684;28;20056;-72
2022/05/11 13:29:16;;;;;;;2.05;0.50;;;;;;;;;;5051338;28;20049;-72
2022/05/11 13:31:43;;;;;;;3.00;0.80;;;;;;;;;;5052535;28;20048;-72
2022/05/11 13:34:27;;;;;;;4.75;0.70;;;;;;;;;;5052428;28;20064;-72
2022/05/11 13:36:54;;;;;;;2.10;0.43;;;;;;;;;;5052244;28;20492;-73
2022/05/11 13:39:40;;;;;;;3.95;1.05;;;;;;;;;;5052117;28;20076;-73
2022/05/11 13:42:17;;;;;;;4.32;0.98;;;;;;;;;;5052348;28;20098;-73
2022/05/11 13:44:50;;;;;;;2.33;0.50;;;;;;;;;;5051837;28;20057;-73
2022/05/11 13:50:30;;;;;;;2.45;0.80;;;;;;;;;;5052157;28;20080;-73
2022/05/11 13:52:58;;;;;;;3.25;0.68;;;;;;;;;;5051737;28;20133;-73
2022/05/11 13:55:36;;;;;;;3.97;0.73;;;;;;;;;;5052104;28;20049;-73
2022/05/11 13:58:21;;;;;;;3.28;0.80;;;;;;;;;;5051696;28;20076;-73
2022/05/11 14:00:48;;;;;;;2.88;0.70;;;;;;;;;;5051791;28;20500;-73
2022/05/11 14:03:15;;;;;;;3.75;0.93;;;;;;;;;;5052021;28;20122;-73
2022/05/11 14:05:44;;;;;;;1.75;0.65;;;;;;;;;;5051767;28;20428;-73
2022/05/11 14:08:11;;;;;;;2.17;0.75;;;;;;;;;;5051939;28;20080;-73
2022/05/11 14:10:38;;;;;;;1.13;0.40;;;;;;;;;;5051849;28;20095;-73
2022/05/11 14:13:04;;;;;;;2.53;0.60;;;;;;;;;;5051764;28;20084;-73
2022/05/11 14:15:31;;;;;;;3.92;0.95;;;;;;;;;;5051569;28;20044;-73
2022/05/11 14:17:58;;;;;;;4.32;0.90;;;;;;;;;;5051428;28;20559;-73
2022/05/11 14:20:26;;;;;;;2.63;0.52;;;;;;;;;;5051455;28;20083;-73
2022/05/11 14:22:59;;;;;;;3.00;0.70;;;;;;;;;;5051558;28;20488;-73
2022/05/11 14:25:26;;;;;;;2.40;0.57;;;;;;;;;;5051718;28;20424;-73
2022/05/11 14:28:12;;;;;;;3.25;0.77;;;;;;;;;;5051730;28;20079;-73
2022/05/11 14:30:39;;;;;;;3.72;0.70;;;;;;;;;;5051424;28;20083;-74
2022/05/11 14:33:06;;;;;;;3.78;0.85;;;;;;;;;;5051669;28;20045;-74
2022/05/11 14:35:33;;;;;;;3.28;0.68;;;;;;;;;;5051598;28;20041;-74
2022/05/11 14:37:59;;;;;;;4.43;0.77;;;;;;;;;;5051608;28;20090;-74
2022/05/11 14:40:27;;;;;;;4.35;1.23;;;;;;;;;;5051298;28;20076;-74
2022/05/11 14:42:53;;;;;;;3.55;0.90;;;;;;;;;;5051246;28;20576;-74
2022/05/11 14:45:20;;;;;;;2.90;0.85;;;;;;;;;;5049974;28;20478;-74
2022/05/11 14:47:54;;;;;;;4.18;1.17;;;;;;;;;;5051338;28;20085;-74
2022/05/11 14:50:22;;;;;;;2.03;0.63;;;;;;;;;;5051573;28;20102;-74
2022/05/11 14:52:49;;;;;;;2.95;0.75;;;;;;;;;;5051391;28;20128;-74
2022/05/11 14:55:17;;;;;;;3.20;0.70;;;;;;;;;;5051213;28;20095;-74
2022/05/11 15:03:13;;;;;;;4.88;2.55;;;;;;;;;;5051483;28;20089;-74
2022/05/11 15:05:41;;;;;;;3.75;1.70;;;;;;;;;;5051463;28;20087;-74
2022/05/11 15:08:08;;;;;;;4.53;1.73;;;;;;;;;;5051278;28;20056;-74
2022/05/11 15:10:35;;;;;;;4.05;0.95;;;;;;;;;;5051066;28;20061;-74
2022/05/11 15:15:47;;;;;;;2.40;0.77;;;;;;;;;;5051124;28;20076;-73
2022/05/11 15:18:16;;;;;;;3.15;0.60;;;;;;;;;;5051190;28;20049;-74
2022/05/11 15:20:43;;;;;;;3.92;0.85;;;;;;;;;;5049734;28;20501;-74
2022/05/11 15:23:11;;;;;;;3.10;0.80;;;;;;;;;;5050899;28;20107;-74
2022/05/11 15:25:37;;;;;;;2.45;0.68;;;;;;;;;;5051208;28;20493;-74
2022/05/11 15:28:04;;;;;;;4.93;0.93;;;;;;;;;;5049688;28;20076;-74
2022/05/11 15:30:30;;;;;;;4.18;1.20;;;;;;;;;;5054562;28;20045;-74
2022/05/11 15:32:57;;;;;;;3.80;0.90;;;;;;;;;;5054477;28;20085;-74
2022/05/11 15:35:24;;;;;;;2.72;0.63;;;;;;;;;;5054438;28;20049;-74
2022/05/11 15:37:51;;;;;;;2.38;0.63;;;;;;;;;;5054712;28;20049;-74
2022/05/11 15:40:17;;;;;;;2.97;1.08;;;;;;;;;;5054725;28;20150;-74
2022/05/11 15:42:45;;;;;;;3.50;1.10;;;;;;;;;;5054338;28;20048;-74